Whites Store, New York
Current Conditions -  °F | °C
As of 6:53 AM on Tuesday 27 Jan 2015 (Local Time) from KBGM Reporting Station
Few Clouds Few Clouds  
Wind Chill: -1°   Ceiling: Unl
Heat Index: 13°   Visibility: 10mi
Dew Point:   Wind: 12mph
Humidity: 74%   Direction: 350°N
Pressure: 29.74"   Gusts: NA
Location:  42.5358°N, 75.3475°W
Report Text: KBGM 271153Z 35010KT 10SM FEW065 M11/M14 A2974 RMK AO2 SLP101 70017 T11061144 11094 21106 50001
Loading
Personal Weather Stations






























Interactive Weather Map New forecast layout! Learn more

10-Day Weather Forecast

Advertisements
Track Severe Weather on mobile